sensor_id;sensor_type;location;lat;lon;timestamp;temperature;humidity
31443;SHT31;18065;55.876;9.830;2023-03-12T00:00:13;21.21;46.13
31443;SHT31;18065;55.876;9.830;2023-03-12T00:02:45;21.19;46.17
31443;SHT31;18065;55.876;9.830;2023-03-12T00:05:13;21.18;46.12
31443;SHT31;18065;55.876;9.830;2023-03-12T00:07:41;21.16;46.12
31443;SHT31;18065;55.876;9.830;2023-03-12T00:10:10;21.16;46.13
31443;SHT31;18065;55.876;9.830;2023-03-12T00:12:39;21.16;46.10
31443;SHT31;18065;55.876;9.830;2023-03-12T00:15:08;21.15;46.10
31443;SHT31;18065;55.876;9.830;2023-03-12T00:17:36;21.18;46.11
31443;SHT31;18065;55.876;9.830;2023-03-12T00:20:08;21.14;46.16
31443;SHT31;18065;55.876;9.830;2023-03-12T00:22:37;21.14;46.18
31443;SHT31;18065;55.876;9.830;2023-03-12T00:25:06;21.15;46.22
31443;SHT31;18065;55.876;9.830;2023-03-12T00:27:35;21.15;46.20
31443;SHT31;18065;55.876;9.830;2023-03-12T00:30:04;21.14;46.21
31443;SHT31;18065;55.876;9.830;2023-03-12T00:32:33;21.14;46.20
31443;SHT31;18065;55.876;9.830;2023-03-12T00:35:02;21.15;46.19
31443;SHT31;18065;55.876;9.830;2023-03-12T00:37:34;21.16;46.22
31443;SHT31;18065;55.876;9.830;2023-03-12T00:40:03;21.11;46.24
31443;SHT31;18065;55.876;9.830;2023-03-12T00:42:33;21.12;46.25
31443;SHT31;18065;55.876;9.830;2023-03-12T00:45:01;21.09;46.25
31443;SHT31;18065;55.876;9.830;2023-03-12T00:47:30;21.11;46.27
31443;SHT31;18065;55.876;9.830;2023-03-12T00:49:58;21.11;46.29
31443;SHT31;18065;55.876;9.830;2023-03-12T00:52:27;21.12;46.32
31443;SHT31;18065;55.876;9.830;2023-03-12T00:54:57;21.11;46.32
31443;SHT31;18065;55.876;9.830;2023-03-12T00:57:26;21.14;46.32
31443;SHT31;18065;55.876;9.830;2023-03-12T00:59:54;21.14;46.33
31443;SHT31;18065;55.876;9.830;2023-03-12T01:02:23;21.14;46.29
31443;SHT31;18065;55.876;9.830;2023-03-12T01:04:51;21.15;46.41
31443;SHT31;18065;55.876;9.830;2023-03-12T01:07:19;21.14;46.38
31443;SHT31;18065;55.876;9.830;2023-03-12T01:09:48;21.14;46.39
31443;SHT31;18065;55.876;9.830;2023-03-12T01:12:19;21.14;46.44
31443;SHT31;18065;55.876;9.830;2023-03-12T01:14:47;21.14;46.44
31443;SHT31;18065;55.876;9.830;2023-03-12T01:17:15;21.15;46.42
31443;SHT31;18065;55.876;9.830;2023-03-12T01:19:44;21.14;46.42
31443;SHT31;18065;55.876;9.830;2023-03-12T01:22:12;21.16;46.36
31443;SHT31;18065;55.876;9.830;2023-03-12T01:24:40;21.12;46.39
31443;SHT31;18065;55.876;9.830;2023-03-12T01:27:09;21.15;46.36
31443;SHT31;18065;55.876;9.830;2023-03-12T01:29:40;21.16;46.40
31443;SHT31;18065;55.876;9.830;2023-03-12T01:32:08;21.14;46.36
31443;SHT31;18065;55.876;9.830;2023-03-12T01:34:36;21.14;46.35
31443;SHT31;18065;55.876;9.830;2023-03-12T01:37:05;21.15;46.38
31443;SHT31;18065;55.876;9.830;2023-03-12T01:39:33;21.12;46.42
31443;SHT31;18065;55.876;9.830;2023-03-12T01:42:02;21.12;46.42
31443;SHT31;18065;55.876;9.830;2023-03-12T01:47:17;21.11;46.56
31443;SHT31;18065;55.876;9.830;2023-03-12T01:49:45;21.12;46.58
31443;SHT31;18065;55.876;9.830;2023-03-12T01:52:15;21.08;46.64
31443;SHT31;18065;55.876;9.830;2023-03-12T01:54:46;21.09;46.60
31443;SHT31;18065;55.876;9.830;2023-03-12T01:57:17;21.09;46.60
31443;SHT31;18065;55.876;9.830;2023-03-12T01:59:49;21.07;46.63
31443;SHT31;18065;55.876;9.830;2023-03-12T02:02:21;21.07;46.61
31443;SHT31;18065;55.876;9.830;2023-03-12T02:04:54;21.08;46.63
31443;SHT31;18065;55.876;9.830;2023-03-12T02:07:26;21.09;46.63
31443;SHT31;18065;55.876;9.830;2023-03-12T02:09:54;21.07;46.66
31443;SHT31;18065;55.876;9.830;2023-03-12T02:12:23;21.02;46.69
31443;SHT31;18065;55.876;9.830;2023-03-12T02:14:51;21.07;46.68
31443;SHT31;18065;55.876;9.830;2023-03-12T02:17:22;21.07;46.69
31443;SHT31;18065;55.876;9.830;2023-03-12T02:19:54;21.04;46.71
31443;SHT31;18065;55.876;9.830;2023-03-12T02:22:26;21.04;46.72
31443;SHT31;18065;55.876;9.830;2023-03-12T02:24:56;21.02;46.76
31443;SHT31;18065;55.876;9.830;2023-03-12T02:27:30;21.07;46.74
31443;SHT31;18065;55.876;9.830;2023-03-12T02:30:00;21.05;46.74
31443;SHT31;18065;55.876;9.830;2023-03-12T02:32:29;21.05;46.76
31443;SHT31;18065;55.876;9.830;2023-03-12T02:35:00;21.08;46.79
31443;SHT31;18065;55.876;9.830;2023-03-12T02:37:29;21.07;46.81
31443;SHT31;18065;55.876;9.830;2023-03-12T02:39:59;21.08;46.78
31443;SHT31;18065;55.876;9.830;2023-03-12T02:42:32;21.09;46.81
31443;SHT31;18065;55.876;9.830;2023-03-12T02:45:01;21.11;46.86
31443;SHT31;18065;55.876;9.830;2023-03-12T02:47:30;21.11;46.83
31443;SHT31;18065;55.876;9.830;2023-03-12T02:49:58;21.12;46.82
31443;SHT31;18065;55.876;9.830;2023-03-12T02:52:27;21.11;46.77
31443;SHT31;18065;55.876;9.830;2023-03-12T02:54:59;21.15;46.80
31443;SHT31;18065;55.876;9.830;2023-03-12T02:57:28;21.12;46.79
31443;SHT31;18065;55.876;9.830;2023-03-12T02:59:59;21.11;46.80
31443;SHT31;18065;55.876;9.830;2023-03-12T03:02:28;21.12;46.82
31443;SHT31;18065;55.876;9.830;2023-03-12T03:04:56;21.11;46.79
31443;SHT31;18065;55.876;9.830;2023-03-12T03:07:25;21.11;46.81
31443;SHT31;18065;55.876;9.830;2023-03-12T03:09:53;21.09;46.81
31443;SHT31;18065;55.876;9.830;2023-03-12T03:12:28;21.11;46.73
31443;SHT31;18065;55.876;9.830;2023-03-12T03:14:59;21.12;46.75
31443;SHT31;18065;55.876;9.830;2023-03-12T03:17:28;21.12;46.72
31443;SHT31;18065;55.876;9.830;2023-03-12T03:19:56;21.09;46.73
31443;SHT31;18065;55.876;9.830;2023-03-12T03:22:25;21.11;46.68
31443;SHT31;18065;55.876;9.830;2023-03-12T03:24:53;21.11;46.71
31443;SHT31;18065;55.876;9.830;2023-03-12T03:27:21;21.08;46.73
31443;SHT31;18065;55.876;9.830;2023-03-12T03:29:50;21.09;46.75
31443;SHT31;18065;55.876;9.830;2023-03-12T03:32:21;21.08;46.75
31443;SHT31;18065;55.876;9.830;2023-03-12T03:34:49;21.09;46.75
31443;SHT31;18065;55.876;9.830;2023-03-12T03:37:18;21.08;46.78
31443;SHT31;18065;55.876;9.830;2023-03-12T03:39:46;21.08;46.76
31443;SHT31;18065;55.876;9.830;2023-03-12T03:42:14;21.09;46.79
31443;SHT31;18065;55.876;9.830;2023-03-12T03:44:43;21.09;46.79
31443;SHT31;18065;55.876;9.830;2023-03-12T03:47:11;21.09;46.74
31443;SHT31;18065;55.876;9.830;2023-03-12T03:49:42;21.11;46.72
31443;SHT31;18065;55.876;9.830;2023-03-12T03:52:11;21.11;46.74
31443;SHT31;18065;55.876;9.830;2023-03-12T03:54:39;21.09;46.68
31443;SHT31;18065;55.876;9.830;2023-03-12T03:57:07;21.11;46.64
31443;SHT31;18065;55.876;9.830;2023-03-12T03:59:36;21.11;46.61
31443;SHT31;18065;55.876;9.830;2023-03-12T04:02:04;21.12;46.64
31443;SHT31;18065;55.876;9.830;2023-03-12T04:04:32;21.08;46.58
31443;SHT31;18065;55.876;9.830;2023-03-12T04:07:04;21.11;46.55
31443;SHT31;18065;55.876;9.830;2023-03-12T04:09:32;21.11;46.53
31443;SHT31;18065;55.876;9.830;2023-03-12T04:12:00;21.08;46.52
31443;SHT31;18065;55.876;9.830;2023-03-12T04:14:29;21.11;46.53
31443;SHT31;18065;55.876;9.830;2023-03-12T04:16:57;21.11;46.45
31443;SHT31;18065;55.876;9.830;2023-03-12T04:19:26;21.09;46.45
31443;SHT31;18065;55.876;9.830;2023-03-12T04:21:54;21.09;46.43
31443;SHT31;18065;55.876;9.830;2023-03-12T04:24:25;21.09;46.43
31443;SHT31;18065;55.876;9.830;2023-03-12T04:26:53;21.09;46.40
31443;SHT31;18065;55.876;9.830;2023-03-12T04:29:22;21.08;46.38
31443;SHT31;18065;55.876;9.830;2023-03-12T04:31:50;21.09;46.34
31443;SHT31;18065;55.876;9.830;2023-03-12T04:34:19;21.05;46.32
31443;SHT31;18065;55.876;9.830;2023-03-12T04:36:47;21.08;46.30
31443;SHT31;18065;55.876;9.830;2023-03-12T04:39:16;21.08;46.24
31443;SHT31;18065;55.876;9.830;2023-03-12T04:41:48;21.05;46.29
31443;SHT31;18065;55.876;9.830;2023-03-12T04:44:16;21.08;46.22
31443;SHT31;18065;55.876;9.830;2023-03-12T04:46:44;21.08;46.22
31443;SHT31;18065;55.876;9.830;2023-03-12T04:49:13;21.07;46.20
31443;SHT31;18065;55.876;9.830;2023-03-12T04:51:41;21.08;46.27
31443;SHT31;18065;55.876;9.830;2023-03-12T04:54:10;21.09;46.24
31443;SHT31;18065;55.876;9.830;2023-03-12T04:56:38;21.08;46.24
31443;SHT31;18065;55.876;9.830;2023-03-12T04:59:09;21.12;46.29
31443;SHT31;18065;55.876;9.830;2023-03-12T05:01:37;21.09;46.28
31443;SHT31;18065;55.876;9.830;2023-03-12T05:04:06;21.11;46.29
31443;SHT31;18065;55.876;9.830;2023-03-12T05:06:34;21.11;46.30
31443;SHT31;18065;55.876;9.830;2023-03-12T05:09:02;21.11;46.26
31443;SHT31;18065;55.876;9.830;2023-03-12T05:11:31;21.11;46.24
31443;SHT31;18065;55.876;9.830;2023-03-12T05:13:59;21.11;46.26
31443;SHT31;18065;55.876;9.830;2023-03-12T05:16:30;21.08;46.27
31443;SHT31;18065;55.876;9.830;2023-03-12T05:18:58;21.09;46.26
31443;SHT31;18065;55.876;9.830;2023-03-12T05:21:28;21.09;46.24
31443;SHT31;18065;55.876;9.830;2023-03-12T05:23:57;21.11;46.21
31443;SHT31;18065;55.876;9.830;2023-03-12T05:26:26;21.08;46.20
31443;SHT31;18065;55.876;9.830;2023-03-12T05:28:55;21.09;46.20
31443;SHT31;18065;55.876;9.830;2023-03-12T05:31:24;21.08;46.15
31443;SHT31;18065;55.876;9.830;2023-03-12T05:33:55;21.04;46.15
31443;SHT31;18065;55.876;9.830;2023-03-12T05:36:23;21.05;46.13
31443;SHT31;18065;55.876;9.830;2023-03-12T05:38:52;21.05;46.10
31443;SHT31;18065;55.876;9.830;2023-03-12T05:41:21;21.02;46.06
31443;SHT31;18065;55.876;9.830;2023-03-12T05:43:50;21.04;46.05
31443;SHT31;18065;55.876;9.830;2023-03-12T05:46:20;21.02;46.08
31443;SHT31;18065;55.876;9.830;2023-03-12T05:48:49;21.01;46.07
31443;SHT31;18065;55.876;9.830;2023-03-12T05:51:20;21.04;46.10
31443;SHT31;18065;55.876;9.830;2023-03-12T05:53:48;21.05;46.19
31443;SHT31;18065;55.876;9.830;2023-03-12T05:56:17;21.05;46.18
31443;SHT31;18065;55.876;9.830;2023-03-12T05:58:46;21.05;46.24
31443;SHT31;18065;55.876;9.830;2023-03-12T06:01:16;21.04;46.26
31443;SHT31;18065;55.876;9.830;2023-03-12T06:03:44;21.04;46.28
31443;SHT31;18065;55.876;9.830;2023-03-12T06:06:13;21.02;46.42
31443;SHT31;18065;55.876;9.830;2023-03-12T06:08:44;21.01;46.83
31443;SHT31;18065;55.876;9.830;2023-03-12T06:11:13;21.02;47.10
31443;SHT31;18065;55.876;9.830;2023-03-12T06:13:41;21.04;47.11
31443;SHT31;18065;55.876;9.830;2023-03-12T06:16:15;20.99;47.04
31443;SHT31;18065;55.876;9.830;2023-03-12T06:18:44;20.99;47.00
31443;SHT31;18065;55.876;9.830;2023-03-12T06:21:13;21.02;46.93
31443;SHT31;18065;55.876;9.830;2023-03-12T06:23:44;20.99;46.79
31443;SHT31;18065;55.876;9.830;2023-03-12T06:26:13;21.04;46.73
31443;SHT31;18065;55.876;9.830;2023-03-12T06:28:41;21.04;46.66
31443;SHT31;18065;55.876;9.830;2023-03-12T06:31:10;21.01;46.62
31443;SHT31;18065;55.876;9.830;2023-03-12T06:33:38;21.04;46.49
31443;SHT31;18065;55.876;9.830;2023-03-12T06:36:07;21.01;46.45
31443;SHT31;18065;55.876;9.830;2023-03-12T06:38:36;21.02;46.45
31443;SHT31;18065;55.876;9.830;2023-03-12T06:41:08;21.05;46.37
31443;SHT31;18065;55.876;9.830;2023-03-12T06:43:37;21.04;46.39
31443;SHT31;18065;55.876;9.830;2023-03-12T06:46:06;21.08;46.34
31443;SHT31;18065;55.876;9.830;2023-03-12T06:48:35;21.07;46.34
31443;SHT31;18065;55.876;9.830;2023-03-12T06:51:06;21.08;46.32
31443;SHT31;18065;55.876;9.830;2023-03-12T06:53:34;21.07;46.35
31443;SHT31;18065;55.876;9.830;2023-03-12T06:56:03;21.08;46.35
31443;SHT31;18065;55.876;9.830;2023-03-12T07:01:05;21.07;46.33
31443;SHT31;18065;55.876;9.830;2023-03-12T07:03:34;21.05;46.34
31443;SHT31;18065;55.876;9.830;2023-03-12T07:06:03;21.08;46.31
31443;SHT31;18065;55.876;9.830;2023-03-12T07:08:31;21.08;46.29
31443;SHT31;18065;55.876;9.830;2023-03-12T07:10:59;21.11;46.28
31443;SHT31;18065;55.876;9.830;2023-03-12T07:13:28;21.11;46.31
31443;SHT31;18065;55.876;9.830;2023-03-12T07:15:57;21.15;46.31
31443;SHT31;18065;55.876;9.830;2023-03-12T07:18:28;21.15;46.26
31443;SHT31;18065;55.876;9.830;2023-03-12T07:20:56;21.15;46.22
31443;SHT31;18065;55.876;9.830;2023-03-12T07:23:25;21.18;46.20
31443;SHT31;18065;55.876;9.830;2023-03-12T07:25:53;21.18;46.11
31443;SHT31;18065;55.876;9.830;2023-03-12T07:28:22;21.19;46.12
31443;SHT31;18065;55.876;9.830;2023-03-12T07:30:50;21.23;46.01
31443;SHT31;18065;55.876;9.830;2023-03-12T07:33:19;21.29;45.90
31443;SHT31;18065;55.876;9.830;2023-03-12T07:35:50;21.35;45.76
31443;SHT31;18065;55.876;9.830;2023-03-12T07:38:19;21.36;45.71
31443;SHT31;18065;55.876;9.830;2023-03-12T07:40:49;21.42;45.68
31443;SHT31;18065;55.876;9.830;2023-03-12T07:43:17;21.41;45.61
31443;SHT31;18065;55.876;9.830;2023-03-12T07:45:46;21.46;45.55
31443;SHT31;18065;55.876;9.830;2023-03-12T07:48:14;21.46;45.47
31443;SHT31;18065;55.876;9.830;2023-03-12T07:50:44;21.53;45.40
31443;SHT31;18065;55.876;9.830;2023-03-12T07:53:15;21.55;45.37
31443;SHT31;18065;55.876;9.830;2023-03-12T07:55:44;21.58;45.25
31443;SHT31;18065;55.876;9.830;2023-03-12T07:58:12;21.60;45.19
31443;SHT31;18065;55.876;9.830;2023-03-12T08:00:41;21.59;45.19
31443;SHT31;18065;55.876;9.830;2023-03-12T08:03:09;21.60;45.17
31443;SHT31;18065;55.876;9.830;2023-03-12T08:05:38;21.60;45.18
31443;SHT31;18065;55.876;9.830;2023-03-12T08:08:07;21.62;45.21
31443;SHT31;18065;55.876;9.830;2023-03-12T08:10:38;21.60;45.23
31443;SHT31;18065;55.876;9.830;2023-03-12T08:13:06;21.59;45.27
31443;SHT31;18065;55.876;9.830;2023-03-12T08:15:34;21.58;45.29
31443;SHT31;18065;55.876;9.830;2023-03-12T08:18:03;21.58;45.32
31443;SHT31;18065;55.876;9.830;2023-03-12T08:20:31;21.58;45.31
31443;SHT31;18065;55.876;9.830;2023-03-12T08:22:59;21.53;45.40
31443;SHT31;18065;55.876;9.830;2023-03-12T08:25:28;21.52;45.44
31443;SHT31;18065;55.876;9.830;2023-03-12T08:27:59;21.49;45.50
31443;SHT31;18065;55.876;9.830;2023-03-12T08:30:27;21.49;45.54
31443;SHT31;18065;55.876;9.830;2023-03-12T08:32:56;21.48;45.55
31443;SHT31;18065;55.876;9.830;2023-03-12T08:35:24;21.45;45.63
31443;SHT31;18065;55.876;9.830;2023-03-12T08:37:53;21.45;45.68
31443;SHT31;18065;55.876;9.830;2023-03-12T08:40:21;21.45;45.66
31443;SHT31;18065;55.876;9.830;2023-03-12T08:42:49;21.43;45.70
31443;SHT31;18065;55.876;9.830;2023-03-12T08:45:20;21.45;45.73
31443;SHT31;18065;55.876;9.830;2023-03-12T08:47:49;21.46;45.76
31443;SHT31;18065;55.876;9.830;2023-03-12T08:50:17;21.43;45.79
31443;SHT31;18065;55.876;9.830;2023-03-12T08:52:47;21.43;45.83
31443;SHT31;18065;55.876;9.830;2023-03-12T08:55:16;21.42;45.81
31443;SHT31;18065;55.876;9.830;2023-03-12T08:57:44;21.41;45.81
31443;SHT31;18065;55.876;9.830;2023-03-12T09:00:13;21.42;45.82
31443;SHT31;18065;55.876;9.830;2023-03-12T09:02:45;21.43;45.80
31443;SHT31;18065;55.876;9.830;2023-03-12T09:05:16;21.42;45.81
31443;SHT31;18065;55.876;9.830;2023-03-12T09:07:45;21.41;45.82
31443;SHT31;18065;55.876;9.830;2023-03-12T09:10:14;21.43;45.82
31443;SHT31;18065;55.876;9.830;2023-03-12T09:12:42;21.42;45.83
31443;SHT31;18065;55.876;9.830;2023-03-12T09:15:11;21.43;45.79
31443;SHT31;18065;55.876;9.830;2023-03-12T09:17:40;21.41;45.82
31443;SHT31;18065;55.876;9.830;2023-03-12T09:20:11;21.41;45.90
31443;SHT31;18065;55.876;9.830;2023-03-12T09:22:41;21.39;45.93
31443;SHT31;18065;55.876;9.830;2023-03-12T09:25:10;21.42;45.97
31443;SHT31;18065;55.876;9.830;2023-03-12T09:27:39;21.41;45.97
31443;SHT31;18065;55.876;9.830;2023-03-12T09:30:09;21.39;45.97
31443;SHT31;18065;55.876;9.830;2023-03-12T09:32:38;21.41;46.00
31443;SHT31;18065;55.876;9.830;2023-03-12T09:35:06;21.39;46.05
31443;SHT31;18065;55.876;9.830;2023-03-12T09:37:37;21.41;46.00
31443;SHT31;18065;55.876;9.830;2023-03-12T09:40:07;21.41;46.02
31443;SHT31;18065;55.876;9.830;2023-03-12T09:42:37;21.45;46.04
31443;SHT31;18065;55.876;9.830;2023-03-12T09:45:07;21.41;46.03
31443;SHT31;18065;55.876;9.830;2023-03-12T09:47:42;21.42;46.06
31443;SHT31;18065;55.876;9.830;2023-03-12T09:50:15;21.42;46.04
31443;SHT31;18065;55.876;9.830;2023-03-12T09:52:47;21.43;46.10
31443;SHT31;18065;55.876;9.830;2023-03-12T09:55:18;21.42;46.12
31443;SHT31;18065;55.876;9.830;2023-03-12T09:57:48;21.46;46.12
31443;SHT31;18065;55.876;9.830;2023-03-12T10:00:18;21.45;46.18
31443;SHT31;18065;55.876;9.830;2023-03-12T10:02:52;21.45;46.32
31443;SHT31;18065;55.876;9.830;2023-03-12T10:05:23;21.45;46.39
31443;SHT31;18065;55.876;9.830;2023-03-12T10:07:56;21.46;46.50
31443;SHT31;18065;55.876;9.830;2023-03-12T10:10:28;21.46;46.56
31443;SHT31;18065;55.876;9.830;2023-03-12T10:13:06;21.46;46.53
31443;SHT31;18065;55.876;9.830;2023-03-12T10:15:38;21.46;46.55
31443;SHT31;18065;55.876;9.830;2023-03-12T10:18:13;21.46;46.55
31443;SHT31;18065;55.876;9.830;2023-03-12T10:23:33;21.46;46.62
31443;SHT31;18065;55.876;9.830;2023-03-12T10:26:06;21.49;46.61
31443;SHT31;18065;55.876;9.830;2023-03-12T10:28:38;21.49;46.74
31443;SHT31;18065;55.876;9.830;2023-03-12T10:31:12;21.48;46.76
31443;SHT31;18065;55.876;9.830;2023-03-12T10:33:43;21.46;46.78
31443;SHT31;18065;55.876;9.830;2023-03-12T10:36:15;21.48;46.80
31443;SHT31;18065;55.876;9.830;2023-03-12T10:38:46;21.48;46.74
31443;SHT31;18065;55.876;9.830;2023-03-12T10:41:17;21.46;46.74
31443;SHT31;18065;55.876;9.830;2023-03-12T10:43:45;21.48;46.69
31443;SHT31;18065;55.876;9.830;2023-03-12T10:46:30;21.46;46.73
31443;SHT31;18065;55.876;9.830;2023-03-12T10:51:52;21.46;46.70
31443;SHT31;18065;55.876;9.830;2023-03-12T10:54:26;21.48;46.67
31443;SHT31;18065;55.876;9.830;2023-03-12T10:56:55;21.48;46.68
31443;SHT31;18065;55.876;9.830;2023-03-12T10:59:28;21.46;46.71
31443;SHT31;18065;55.876;9.830;2023-03-12T11:01:57;21.46;46.74
31443;SHT31;18065;55.876;9.830;2023-03-12T11:04:26;21.46;46.77
31443;SHT31;18065;55.876;9.830;2023-03-12T11:10:01;21.49;46.87
31443;SHT31;18065;55.876;9.830;2023-03-12T11:12:30;21.46;46.88
31443;SHT31;18065;55.876;9.830;2023-03-12T11:14:59;21.46;46.85
31443;SHT31;18065;55.876;9.830;2023-03-12T11:17:45;21.45;46.85
31443;SHT31;18065;55.876;9.830;2023-03-12T11:20:17;21.46;46.87
31443;SHT31;18065;55.876;9.830;2023-03-12T11:22:46;21.46;46.85
31443;SHT31;18065;55.876;9.830;2023-03-12T11:25:22;21.48;46.85
31443;SHT31;18065;55.876;9.830;2023-03-12T11:27:52;21.48;47.01
31443;SHT31;18065;55.876;9.830;2023-03-12T11:30:22;21.46;47.26
31443;SHT31;18065;55.876;9.830;2023-03-12T11:32:50;21.45;47.43
31443;SHT31;18065;55.876;9.830;2023-03-12T11:35:24;21.45;47.41
31443;SHT31;18065;55.876;9.830;2023-03-12T11:37:58;21.46;47.46
31443;SHT31;18065;55.876;9.830;2023-03-12T11:43:21;21.48;47.56
31443;SHT31;18065;55.876;9.830;2023-03-12T11:45:58;21.48;47.64
31443;SHT31;18065;55.876;9.830;2023-03-12T11:48:31;21.46;47.69
31443;SHT31;18065;55.876;9.830;2023-03-12T11:51:07;21.46;47.75
31443;SHT31;18065;55.876;9.830;2023-03-12T11:53:44;21.46;48.31
31443;SHT31;18065;55.876;9.830;2023-03-12T11:56:19;21.48;48.76
31443;SHT31;18065;55.876;9.830;2023-03-12T11:58:56;21.46;49.29
31443;SHT31;18065;55.876;9.830;2023-03-12T12:01:29;21.48;49.65
31443;SHT31;18065;55.876;9.830;2023-03-12T12:04:18;21.49;49.71
31443;SHT31;18065;55.876;9.830;2023-03-12T12:06:56;21.48;49.44
31443;SHT31;18065;55.876;9.830;2023-03-12T12:09:27;21.48;49.28
31443;SHT31;18065;55.876;9.830;2023-03-12T12:12:03;21.50;49.23
31443;SHT31;18065;55.876;9.830;2023-03-12T12:14:40;21.48;49.59
31443;SHT31;18065;55.876;9.830;2023-03-12T12:17:14;21.52;49.80
31443;SHT31;18065;55.876;9.830;2023-03-12T12:19:52;21.53;49.92
31443;SHT31;18065;55.876;9.830;2023-03-12T12:22:27;21.59;50.26
31443;SHT31;18065;55.876;9.830;2023-03-12T12:25:14;21.59;50.32
31443;SHT31;18065;55.876;9.830;2023-03-12T12:27:46;21.60;50.07
31443;SHT31;18065;55.876;9.830;2023-03-12T12:30:20;21.60;50.20
31443;SHT31;18065;55.876;9.830;2023-03-12T12:32:56;21.62;49.97
31443;SHT31;18065;55.876;9.830;2023-03-12T12:35:28;21.60;49.90
31443;SHT31;18065;55.876;9.830;2023-03-12T12:37:58;21.67;49.91
31443;SHT31;18065;55.876;9.830;2023-03-12T12:40:30;21.65;49.88
31443;SHT31;18065;55.876;9.830;2023-03-12T12:43:04;21.69;49.76
31443;SHT31;18065;55.876;9.830;2023-03-12T12:45:36;21.71;49.95
31443;SHT31;18065;55.876;9.830;2023-03-12T12:48:07;21.71;50.06
31443;SHT31;18065;55.876;9.830;2023-03-12T12:50:38;21.70;49.85
31443;SHT31;18065;55.876;9.830;2023-03-12T12:53:11;21.71;49.63
31443;SHT31;18065;55.876;9.830;2023-03-12T12:55:42;21.70;49.46
31443;SHT31;18065;55.876;9.830;2023-03-12T12:58:16;21.69;49.33
31443;SHT31;18065;55.876;9.830;2023-03-12T13:00:49;21.67;49.20
31443;SHT31;18065;55.876;9.830;2023-03-12T13:03:18;21.69;49.09
31443;SHT31;18065;55.876;9.830;2023-03-12T13:05:54;21.67;48.85
31443;SHT31;18065;55.876;9.830;2023-03-12T13:11:22;21.67;48.64
31443;SHT31;18065;55.876;9.830;2023-03-12T13:16:41;21.65;48.53
31443;SHT31;18065;55.876;9.830;2023-03-12T13:19:20;21.66;48.44
31443;SHT31;18065;55.876;9.830;2023-03-12T13:21:51;21.65;48.39
31443;SHT31;18065;55.876;9.830;2023-03-12T13:24:25;21.66;48.37
31443;SHT31;18065;55.876;9.830;2023-03-12T13:26:57;21.66;48.31
31443;SHT31;18065;55.876;9.830;2023-03-12T13:29:37;21.66;48.31
31443;SHT31;18065;55.876;9.830;2023-03-12T13:35:00;21.67;48.09
31443;SHT31;18065;55.876;9.830;2023-03-12T13:40:34;21.70;48.26
31443;SHT31;18065;55.876;9.830;2023-03-12T13:43:05;21.79;48.80
31443;SHT31;18065;55.876;9.830;2023-03-12T13:45:37;21.86;48.26
31443;SHT31;18065;55.876;9.830;2023-03-12T13:48:13;21.87;48.06
31443;SHT31;18065;55.876;9.830;2023-03-12T13:50:47;21.89;48.00
31443;SHT31;18065;55.876;9.830;2023-03-12T13:53:19;21.89;47.88
31443;SHT31;18065;55.876;9.830;2023-03-12T13:55:49;21.87;47.81
31443;SHT31;18065;55.876;9.830;2023-03-12T13:58:26;21.84;47.70
31443;SHT31;18065;55.876;9.830;2023-03-12T14:00:56;21.83;47.66
31443;SHT31;18065;55.876;9.830;2023-03-12T14:03:29;21.86;47.61
31443;SHT31;18065;55.876;9.830;2023-03-12T14:05:58;21.86;47.50
31443;SHT31;18065;55.876;9.830;2023-03-12T14:08:32;21.86;47.44
31443;SHT31;18065;55.876;9.830;2023-03-12T14:11:22;21.86;47.32
31443;SHT31;18065;55.876;9.830;2023-03-12T14:16:37;21.84;47.36
31443;SHT31;18065;55.876;9.830;2023-03-12T14:19:13;21.86;47.35
31443;SHT31;18065;55.876;9.830;2023-03-12T14:21:42;21.83;47.49
31443;SHT31;18065;55.876;9.830;2023-03-12T14:24:15;21.84;47.41
31443;SHT31;18065;55.876;9.830;2023-03-12T14:26:45;21.83;47.40
31443;SHT31;18065;55.876;9.830;2023-03-12T14:29:17;21.87;47.41
31443;SHT31;18065;55.876;9.830;2023-03-12T14:31:46;21.87;47.47
31443;SHT31;18065;55.876;9.830;2023-03-12T14:34:18;21.87;47.43
31443;SHT31;18065;55.876;9.830;2023-03-12T14:36:49;21.86;47.45
31443;SHT31;18065;55.876;9.830;2023-03-12T14:39:26;21.87;47.43
31443;SHT31;18065;55.876;9.830;2023-03-12T14:41:57;21.84;47.40
31443;SHT31;18065;55.876;9.830;2023-03-12T14:44:29;21.86;47.41
31443;SHT31;18065;55.876;9.830;2023-03-12T14:46:58;21.83;47.41
31443;SHT31;18065;55.876;9.830;2023-03-12T14:49:29;21.84;47.40
31443;SHT31;18065;55.876;9.830;2023-03-12T14:51:58;21.83;47.32
31443;SHT31;18065;55.876;9.830;2023-03-12T14:54:26;21.80;47.33
31443;SHT31;18065;55.876;9.830;2023-03-12T14:56:55;21.81;47.38
31443;SHT31;18065;55.876;9.830;2023-03-12T14:59:25;21.81;47.29
31443;SHT31;18065;55.876;9.830;2023-03-12T15:01:57;21.80;47.27
31443;SHT31;18065;55.876;9.830;2023-03-12T15:04:26;21.80;47.28
31443;SHT31;18065;55.876;9.830;2023-03-12T15:06:58;21.80;47.27
31443;SHT31;18065;55.876;9.830;2023-03-12T15:09:29;21.81;47.31
31443;SHT31;18065;55.876;9.830;2023-03-12T15:11:58;21.80;47.32
31443;SHT31;18065;55.876;9.830;2023-03-12T15:14:31;21.77;47.23
31443;SHT31;18065;55.876;9.830;2023-03-12T15:17:00;21.79;47.14
31443;SHT31;18065;55.876;9.830;2023-03-12T15:19:31;21.79;47.15
31443;SHT31;18065;55.876;9.830;2023-03-12T15:22:03;21.80;47.13
31443;SHT31;18065;55.876;9.830;2023-03-12T15:24:32;21.79;47.12
31443;SHT31;18065;55.876;9.830;2023-03-12T15:29:52;21.77;47.18
31443;SHT31;18065;55.876;9.830;2023-03-12T15:32:22;21.80;47.16
31443;SHT31;18065;55.876;9.830;2023-03-12T15:34:51;21.77;47.11
31443;SHT31;18065;55.876;9.830;2023-03-12T15:37:24;21.79;47.15
31443;SHT31;18065;55.876;9.830;2023-03-12T15:39:57;21.79;47.13
31443;SHT31;18065;55.876;9.830;2023-03-12T15:42:26;21.79;47.14
31443;SHT31;18065;55.876;9.830;2023-03-12T15:44:56;21.79;47.14
31443;SHT31;18065;55.876;9.830;2023-03-12T15:47:28;21.79;47.15
31443;SHT31;18065;55.876;9.830;2023-03-12T15:49:57;21.77;47.10
31443;SHT31;18065;55.876;9.830;2023-03-12T15:52:30;21.80;47.11
31443;SHT31;18065;55.876;9.830;2023-03-12T15:55:06;21.77;47.11
31443;SHT31;18065;55.876;9.830;2023-03-12T15:57:46;21.73;47.15
31443;SHT31;18065;55.876;9.830;2023-03-12T16:00:16;21.76;47.16
31443;SHT31;18065;55.876;9.830;2023-03-12T16:02:47;21.77;47.14
31443;SHT31;18065;55.876;9.830;2023-03-12T16:05:15;21.76;47.14
31443;SHT31;18065;55.876;9.830;2023-03-12T16:07:46;21.77;47.10
31443;SHT31;18065;55.876;9.830;2023-03-12T16:10:15;21.79;47.11
31443;SHT31;18065;55.876;9.830;2023-03-12T16:12:44;21.77;47.17
31443;SHT31;18065;55.876;9.830;2023-03-12T16:15:14;21.77;47.11
31443;SHT31;18065;55.876;9.830;2023-03-12T16:17:43;21.76;47.13
31443;SHT31;18065;55.876;9.830;2023-03-12T16:20:12;21.79;47.18
31443;SHT31;18065;55.876;9.830;2023-03-12T16:22:42;21.77;47.17